createdAt,value
2022-12-29T00:00:01.583Z,99944.84
2022-12-29T00:02:27.274Z,99951.19
2022-12-29T00:04:52.860Z,99937.41
2022-12-29T00:07:18.551Z,99923.63
2022-12-29T00:09:44.167Z,99929.44
2022-12-29T00:12:09.725Z,99914.53
2022-12-29T00:14:55.176Z,99911.78
2022-12-29T00:17:20.746Z,99905.47
2022-12-29T00:20:06.205Z,99911.78
2022-12-29T00:22:52.595Z,99906.28
2022-12-29T00:25:38.107Z,99903.53
2022-12-29T00:28:24.451Z,99902.72
2022-12-29T00:31:09.969Z,99892.50
2022-12-29T00:33:55.497Z,99892.50
2022-12-29T00:36:29.145Z,99896.38
2022-12-29T00:39:17.007Z,99885.34
2022-12-29T00:42:03.684Z,99886.16
2022-12-29T00:44:29.234Z,99878.72
2022-12-29T00:46:54.816Z,99891.41
2022-12-29T00:49:35.352Z,99875.16
2022-12-29T00:52:03.054Z,99866.06
2022-12-29T00:54:29.302Z,99864.94
2022-12-29T00:56:54.861Z,99875.16
2022-12-29T00:59:20.627Z,99867.69
2022-12-29T01:01:46.474Z,99861.38
2022-12-29T01:04:12.296Z,99877.91
2022-12-29T01:06:38.406Z,99860.25
2022-12-29T01:09:24.071Z,99857.50
2022-12-29T01:11:49.623Z,99871.28
2022-12-29T01:14:15.197Z,99870.44
2022-12-29T01:16:40.810Z,99871.28
2022-12-29T01:19:06.496Z,99863.00
2022-12-29T01:21:32.864Z,99879.53
2022-12-29T01:23:59.311Z,99876.78
2022-12-29T01:26:24.864Z,99867.69
2022-12-29T01:28:50.413Z,99868.81
2022-12-29T01:31:16.077Z,99866.88
2022-12-29T01:33:42.289Z,99871.28
2022-12-29T01:36:09.598Z,99869.34
2022-12-29T01:38:35.605Z,99875.97
2022-12-29T01:41:01.249Z,99874.03
2022-12-29T01:43:43.359Z,99864.13
2022-12-29T01:46:14.897Z,99864.13
2022-12-29T01:48:40.532Z,99858.63
2022-12-29T01:51:06.114Z,99848.72
2022-12-29T01:53:31.896Z,99840.13
2022-12-29T01:55:58.589Z,99840.13
2022-12-29T01:58:24.737Z,99840.94
2022-12-29T02:00:50.442Z,99840.13
2022-12-29T02:03:16.560Z,99836.56
2022-12-29T02:05:50.823Z,99844.84
2022-12-29T02:08:16.387Z,99848.41
2022-12-29T02:10:41.963Z,99852.28
2022-12-29T02:13:07.534Z,99847.59
2022-12-29T02:15:42.423Z,99842.06
2022-12-29T02:18:13.867Z,99835.75
2022-12-29T02:20:59.758Z,99837.38
2022-12-29T02:23:31.153Z,99834.63
2022-12-29T02:26:14.711Z,99828.31
2022-12-29T02:28:52.747Z,99830.25
2022-12-29T02:31:29.057Z,99818.91
2022-12-29T02:34:01.032Z,99808.19
2022-12-29T02:36:32.495Z,99820.84
2022-12-29T02:39:07.481Z,99814.53
2022-12-29T02:41:52.927Z,99818.09
2022-12-29T02:44:25.477Z,99816.16
2022-12-29T02:46:52.373Z,99815.34
2022-12-29T02:49:27.821Z,99807.88
2022-12-29T02:51:55.889Z,99804.31
2022-12-29T02:54:41.344Z,99795.22
2022-12-29T02:59:58.685Z,99795.22
2022-12-29T03:02:44.281Z,99784.22
2022-12-29T03:05:29.852Z,99786.97
2022-12-29T03:08:01.092Z,99774.00
2022-12-29T03:10:44.445Z,99779.50
2022-12-29T03:13:35.956Z,99778.69
2022-12-29T03:16:05.531Z,99778.69
2022-12-29T03:18:34.913Z,99771.25
2022-12-29T03:21:02.224Z,99773.19
2022-12-29T03:23:27.772Z,99768.50
2022-12-29T03:25:54.163Z,99770.44
2022-12-29T03:28:22.242Z,99768.50
2022-12-29T03:30:47.854Z,99761.34
2022-12-29T03:33:14.570Z,99757.47
2022-12-29T03:35:40.855Z,99762.97
2022-12-29T03:38:08.669Z,99754.72
2022-12-29T03:40:34.590Z,99751.44
2022-12-29T03:43:00.275Z,99756.66
2022-12-29T03:45:25.834Z,99749.19
2022-12-29T03:47:52.022Z,99748.38
2022-12-29T03:50:17.574Z,99742.06
2022-12-29T03:52:44.082Z,99740.94
2022-12-29T03:55:09.676Z,99734.59
2022-12-29T03:57:35.229Z,99748.38
2022-12-29T04:00:00.798Z,99716.13
2022-12-29T04:02:26.605Z,99713.69
2022-12-29T04:04:52.323Z,99721.97
2022-12-29T04:07:17.897Z,99720.00
2022-12-29T04:09:43.667Z,99729.91
2022-12-29T04:12:09.218Z,99734.59
2022-12-29T04:14:34.771Z,99730.72
2022-12-29T04:17:00.347Z,99749.19
2022-12-29T04:19:25.901Z,99747.25
2022-12-29T04:21:51.464Z,99753.63
2022-12-29T04:24:17.182Z,99752.78
2022-12-29T04:26:44.379Z,99748.38
2022-12-29T04:29:09.940Z,99748.38
2022-12-29T04:31:35.523Z,99741.75
2022-12-29T04:34:01.167Z,99737.38
2022-12-29T04:36:30.068Z,99733.47
2022-12-29T04:38:55.986Z,99736.56
2022-12-29T04:41:21.535Z,99742.88
2022-12-29T04:43:47.107Z,99740.13
2022-12-29T04:46:12.681Z,99753.09
2022-12-29T04:48:38.283Z,99746.44
2022-12-29T04:51:03.983Z,99761.03
2022-12-29T04:53:29.852Z,99752.78
2022-12-29T04:55:55.460Z,99754.72
2022-12-29T04:58:23.117Z,99754.72
2022-12-29T05:00:48.892Z,99756.38
2022-12-29T05:03:14.621Z,99752.78
2022-12-29T05:05:40.264Z,99755.84
2022-12-29T05:08:05.824Z,99765.72
2022-12-29T05:10:31.379Z,99762.97
2022-12-29T05:12:57.696Z,99774.00
2022-12-29T05:15:23.255Z,99773.19
2022-12-29T05:17:48.816Z,99774.81
2022-12-29T05:20:14.398Z,99780.31
2022-12-29T05:22:40.140Z,99772.06
2022-12-29T05:25:05.743Z,99766.53
2022-12-29T05:27:32.296Z,99761.88
2022-12-29T05:29:57.870Z,99770.16
2022-12-29T05:32:23.421Z,99772.06
2022-12-29T05:34:48.986Z,99766.53
2022-12-29T05:37:14.550Z,99772.91
2022-12-29T05:39:40.119Z,99762.16
2022-12-29T05:42:05.674Z,99760.22
2022-12-29T05:44:31.264Z,99768.50
2022-12-29T05:46:56.976Z,99777.56
2022-12-29T05:49:22.598Z,99766.53
2022-12-29T05:51:48.157Z,99785.84
2022-12-29T05:54:13.716Z,99773.19
2022-12-29T05:56:39.265Z,99781.44
2022-12-29T05:59:04.839Z,99793.28
2022-12-29T06:01:30.494Z,99801.56
2022-12-29T06:03:56.216Z,99807.88
2022-12-29T06:06:21.863Z,99802.38
2022-12-29T06:08:47.424Z,99792.19
2022-12-29T06:11:12.975Z,99805.13
2022-12-29T06:13:38.556Z,99813.41
2022-12-29T06:16:04.368Z,99802.38
2022-12-29T06:18:29.981Z,99808.72
2022-12-29T06:20:59.665Z,99806.78
2022-12-29T06:23:25.274Z,99810.63
2022-12-29T06:25:50.842Z,99822.50
2022-12-29T06:28:17.408Z,99833.53
2022-12-29T06:30:43.821Z,99840.66
2022-12-29T06:33:09.375Z,99845.38
2022-12-29T06:35:34.936Z,99850.06
2022-12-29T06:38:00.492Z,99853.91
2022-12-29T06:40:26.046Z,99849.22
2022-12-29T06:42:51.839Z,99861.91
2022-12-29T06:45:17.505Z,99849.22
2022-12-29T06:47:43.062Z,99855.56
2022-12-29T06:50:08.717Z,99841.81
2022-12-29T06:52:34.276Z,99846.47
2022-12-29T06:54:59.890Z,99853.63
2022-12-29T06:57:26.706Z,99856.66
2022-12-29T06:59:52.399Z,99855.56
2022-12-29T07:02:19.822Z,99852.81
2022-12-29T07:04:45.448Z,99865.75
2022-12-29T07:07:11.013Z,99865.75
2022-12-29T07:09:36.558Z,99872.94
2022-12-29T07:12:02.117Z,99880.38
2022-12-29T07:14:27.674Z,99872.13
2022-12-29T07:16:53.311Z,99877.63
2022-12-29T07:19:18.968Z,99883.13
2022-12-29T07:21:44.529Z,99869.34
2022-12-29T07:24:10.080Z,99874.03
2022-12-29T07:26:36.686Z,99880.66
2022-12-29T07:29:02.883Z,99874.88
2022-12-29T07:31:28.458Z,99881.19
2022-12-29T07:33:54.216Z,99891.41
2022-12-29T07:36:19.844Z,99894.16
2022-12-29T07:38:45.405Z,99901.59
2022-12-29T07:41:10.996Z,99906.00
2022-12-29T07:43:36.719Z,99907.94
2022-12-29T07:46:02.359Z,99905.19
2022-12-29T07:48:27.948Z,99914.25
2022-12-29T07:50:53.510Z,99925.28
2022-12-29T07:53:19.146Z,99913.97
2022-12-29T07:55:44.714Z,99929.69
2022-12-29T07:58:10.263Z,99929.69
2022-12-29T08:00:35.831Z,99929.13
2022-12-29T08:03:01.386Z,99918.44
2022-12-29T08:05:26.949Z,99920.69
2022-12-29T08:07:52.500Z,99925.38
2022-12-29T08:10:18.061Z,99927.28
2022-12-29T08:12:43.616Z,99927.00
2022-12-29T08:15:09.815Z,99933.91
2022-12-29T08:17:35.418Z,99931.47
2022-12-29T08:20:00.997Z,99932.88
2022-12-29T08:22:26.574Z,99946.13
2022-12-29T08:24:52.183Z,99948.09
2022-12-29T08:27:20.714Z,99953.88
2022-12-29T08:29:46.840Z,99967.06
2022-12-29T08:32:12.454Z,99969.81
2022-12-29T08:34:37.999Z,99970.63
2022-12-29T08:37:03.563Z,99969.81
2022-12-29T08:39:29.136Z,99983.28
2022-12-29T08:41:54.804Z,99970.28
2022-12-29T08:44:20.547Z,99968.84
2022-12-29T08:46:46.182Z,99967.22
2022-12-29T08:49:11.744Z,99966.41
2022-12-29T08:51:37.305Z,99975.47
2022-12-29T08:54:02.899Z,99971.59
2022-12-29T08:56:28.504Z,99973.53
2022-12-29T08:58:54.180Z,99977.94
2022-12-29T09:01:20.019Z,99976.00
2022-12-29T09:06:33.815Z,99982.03
2022-12-29T09:09:03.711Z,99980.91
2022-12-29T09:11:29.311Z,99990.81
2022-12-29T09:13:54.888Z,99994.09
2022-12-29T09:16:21.318Z,99990.53
2022-12-29T09:18:46.890Z,99988.59
2022-12-29T09:21:12.456Z,100001.25
2022-12-29T09:23:38.489Z,99999.03
2022-12-29T09:26:04.184Z,100009.22
2022-12-29T09:28:29.739Z,99999.03
2022-12-29T09:30:55.354Z,100021.91
2022-12-29T09:33:20.959Z,100008.94
2022-12-29T09:35:50.507Z,100015.25
2022-12-29T09:38:16.156Z,100007.00
2022-12-29T09:40:41.729Z,100010.56
2022-12-29T09:43:18.310Z,100007.50
2022-12-29T09:45:44.305Z,100009.97
2022-12-29T09:48:18.799Z,100008.34
2022-12-29T09:50:44.878Z,100031.22
2022-12-29T09:53:14.742Z,100016.31
2022-12-29T09:55:42.505Z,100014.69
2022-12-29T09:58:12.653Z,100017.44
2022-12-29T10:00:43.646Z,100022.94
2022-12-29T10:03:14.083Z,100015.50
2022-12-29T10:05:43.401Z,100011.94
2022-12-29T10:10:51.058Z,100005.59
2022-12-29T10:13:22.037Z,100008.34
2022-12-29T10:16:07.504Z,100013.03
2022-12-29T10:18:52.996Z,100026.00
2022-12-29T10:21:23.065Z,100035.06
2022-12-29T10:23:50.209Z,100033.44
2022-12-29T10:26:17.063Z,100019.66
2022-12-29T10:28:43.595Z,100008.63
2022-12-29T10:31:14.057Z,100017.72
2022-12-29T10:33:40.890Z,100033.44
2022-12-29T10:36:11.011Z,100029.88
2022-12-29T10:38:39.086Z,100035.38
2022-12-29T10:41:22.028Z,100037.00
2022-12-29T10:43:48.233Z,100036.19
2022-12-29T10:46:14.753Z,100030.69
2022-12-29T10:48:40.363Z,100036.19
2022-12-29T10:51:06.259Z,100046.41
2022-12-29T10:53:35.475Z,100039.75
2022-12-29T10:56:01.046Z,100039.75
2022-12-29T10:58:26.611Z,100061.00
2022-12-29T11:00:53.747Z,100041.72
2022-12-29T11:03:37.670Z,100069.28
2022-12-29T11:06:06.091Z,100064.56
2022-12-29T11:08:34.095Z,100064.56
2022-12-29T11:11:01.268Z,100069.28
2022-12-29T11:13:34.874Z,100064.56
2022-12-29T11:16:04.143Z,100074.78
2022-12-29T11:18:33.685Z,100080.28
2022-12-29T11:21:00.607Z,100080.28
2022-12-29T11:23:29.716Z,100083.06
2022-12-29T11:28:47.176Z,100094.91
2022-12-29T11:31:16.544Z,100094.91
2022-12-29T11:33:42.194Z,100112.56
2022-12-29T11:36:16.672Z,100094.06
2022-12-29T11:38:46.508Z,100112.56
2022-12-29T11:41:12.503Z,100093.25
2022-12-29T11:43:38.590Z,100099.59
2022-12-29T11:46:04.266Z,100105.09
2022-12-29T11:48:32.164Z,100111.44
2022-12-29T11:50:59.813Z,100104.28
2022-12-29T11:53:27.249Z,100113.38
2022-12-29T11:55:56.511Z,100094.91
2022-12-29T11:58:28.601Z,100116.13
2022-12-29T12:00:54.256Z,100118.88
2022-12-29T12:03:20.206Z,100125.22
2022-12-29T12:05:50.537Z,100122.47
2022-12-29T12:08:21.325Z,100116.13
2022-12-29T12:10:49.372Z,100115.31
2022-12-29T12:13:20.140Z,100118.88
2022-12-29T12:15:51.298Z,100127.16
2022-12-29T12:18:28.851Z,100122.78
2022-12-29T12:20:55.218Z,100130.72
2022-12-29T12:23:30.469Z,100134.59
2022-12-29T12:25:57.713Z,100129.09
2022-12-29T12:28:43.156Z,100126.34
2022-12-29T12:31:15.847Z,100137.38
2022-12-29T12:33:41.960Z,100133.78
2022-12-29T12:36:27.241Z,100140.13
2022-12-29T12:38:55.095Z,100145.63
2022-12-29T12:41:26.790Z,100140.13
2022-12-29T12:43:56.256Z,100151.16
2022-12-29T12:46:29.145Z,100148.69
2022-12-29T12:49:14.600Z,100133.78
2022-12-29T12:51:43.634Z,100148.41
2022-12-29T12:54:29.073Z,100153.91
2022-12-29T12:57:14.531Z,100153.91
2022-12-29T12:59:48.323Z,100162.19
2022-12-29T13:02:33.899Z,100171.25
2022-12-29T13:05:05.564Z,100165.75
2022-12-29T13:07:51.021Z,100167.69
2022-12-29T13:10:36.606Z,100160.25
2022-12-29T13:13:13.771Z,100174.00
2022-12-29T13:15:48.709Z,100178.72
2022-12-29T13:18:20.827Z,100180.66
2022-12-29T13:21:06.492Z,100180.66
2022-12-29T13:23:51.926Z,100173.19
2022-12-29T13:26:20.524Z,100184.53
2022-12-29T13:28:54.759Z,100188.09
2022-12-29T13:31:30.768Z,100175.97
2022-12-29T13:34:01.303Z,100181.47
2022-12-29T13:36:30.747Z,100179.84
2022-12-29T13:39:05.754Z,100186.16
2022-12-29T13:41:32.829Z,100184.22
2022-12-29T13:43:58.385Z,100192.50
2022-12-29T13:46:25.757Z,100178.72
2022-12-29T13:48:52.005Z,100186.97
2022-12-29T13:51:20.166Z,100184.22
2022-12-29T13:54:01.238Z,100188.91
2022-12-29T13:56:46.681Z,100190.56
2022-12-29T13:59:21.924Z,100188.09
2022-12-29T14:02:07.573Z,100184.22
2022-12-29T14:04:35.161Z,100188.09
2022-12-29T14:07:16.687Z,100186.16
2022-12-29T14:09:47.651Z,100195.25
2022-12-29T14:12:21.301Z,100194.44
2022-12-29T14:14:46.855Z,100203.53
2022-12-29T14:17:14.744Z,100201.88
2022-12-29T14:19:42.176Z,100202.72
2022-12-29T14:22:07.827Z,100202.72
2022-12-29T14:27:13.830Z,100211.78
2022-12-29T14:35:26.394Z,100219.25
2022-12-29T14:37:51.958Z,100222.00
2022-12-29T14:40:26.403Z,100218.44
2022-12-29T14:42:54.075Z,100222.81
2022-12-29T14:47:54.600Z,100228.34
2022-12-29T14:53:03.769Z,100233.84
2022-12-29T14:55:50.050Z,100227.50
2022-12-29T14:58:18.109Z,100229.44
2022-12-29T15:00:43.732Z,100237.72
2022-12-29T15:03:29.221Z,100230.28
2022-12-29T15:05:55.738Z,100239.66
2022-12-29T15:08:21.907Z,100229.44
2022-12-29T15:10:51.854Z,100234.97
2022-12-29T15:13:18.640Z,100241.28
2022-12-29T15:15:44.216Z,100241.28
2022-12-29T15:18:26.119Z,100248.75
2022-12-29T15:20:52.214Z,100242.13
2022-12-29T15:23:17.769Z,100240.47
2022-12-29T15:25:47.307Z,100246.81
2022-12-29T15:28:12.864Z,100242.13
2022-12-29T15:30:49.971Z,100242.13
2022-12-29T15:33:19.401Z,100246.81
2022-12-29T15:35:44.958Z,100246.81
2022-12-29T15:38:15.988Z,100255.91
2022-12-29T15:40:41.532Z,100255.91
2022-12-29T15:43:10.190Z,100259.78
2022-12-29T15:45:35.884Z,100270.78
2022-12-29T15:48:01.541Z,100272.44
2022-12-29T15:50:30.858Z,100274.38
2022-12-29T15:52:56.548Z,100286.53
2022-12-29T15:55:27.563Z,100279.06
2022-12-29T15:57:56.211Z,100293.66
2022-12-29T16:00:25.774Z,100301.13
2022-12-29T16:02:51.692Z,100292.84
2022-12-29T16:05:18.900Z,100299.19
2022-12-29T16:07:52.642Z,100288.16
2022-12-29T16:10:27.033Z,100294.78
2022-12-29T16:12:52.908Z,100279.06
2022-12-29T16:15:18.470Z,100279.06
2022-12-29T16:17:46.815Z,100281.00
2022-12-29T16:20:20.363Z,100277.94
2022-12-29T16:22:47.269Z,100276.31
2022-12-29T16:25:17.490Z,100292.84
2022-12-29T16:27:43.213Z,100284.59
2022-12-29T16:30:32.891Z,100296.44
2022-12-29T16:33:00.363Z,100288.16
2022-12-29T16:35:27.175Z,100299.19
2022-12-29T16:38:13.246Z,100293.66
2022-12-29T16:40:41.133Z,100303.06
2022-12-29T16:43:19.185Z,100305.81
2022-12-29T16:48:19.781Z,100311.31
2022-12-29T16:50:45.367Z,100310.22
2022-12-29T16:53:19.371Z,100319.28
2022-12-29T16:55:46.716Z,100323.16
2022-12-29T16:58:13.079Z,100331.44
2022-12-29T17:00:38.624Z,100339.72
2022-12-29T17:03:04.318Z,100343.28
2022-12-29T17:05:30.036Z,100343.28
2022-12-29T17:08:00.878Z,100340.53
2022-12-29T17:10:46.330Z,100353.50
2022-12-29T17:13:11.887Z,100342.47
2022-12-29T17:15:37.451Z,100338.06
2022-12-29T17:18:04.702Z,100344.41
2022-12-29T17:20:31.869Z,100343.28
2022-12-29T17:22:57.884Z,100349.91
2022-12-29T17:25:24.375Z,100347.16
2022-12-29T17:27:50.601Z,100360.94
2022-12-29T17:30:17.273Z,100365.63
2022-12-29T17:32:43.531Z,100368.91
2022-12-29T17:35:13.124Z,100370.84
2022-12-29T17:37:38.682Z,100377.47
2022-12-29T17:40:05.572Z,100377.47
2022-12-29T17:42:32.342Z,100373.59
2022-12-29T17:44:58.629Z,100414.13
2022-12-29T17:47:24.188Z,100411.38
2022-12-29T17:49:49.738Z,100409.44
2022-12-29T17:52:15.624Z,100412.19
2022-12-29T17:54:41.988Z,100413.31
2022-12-29T17:57:09.225Z,100411.38
2022-12-29T17:59:34.785Z,100408.63
2022-12-29T18:02:00.461Z,100405.06
2022-12-29T18:04:26.144Z,100414.13
2022-12-29T18:06:51.707Z,100407.81
2022-12-29T18:09:17.541Z,100412.19
2022-12-29T18:11:43.216Z,100414.97
2022-12-29T18:14:10.966Z,100410.56
2022-12-29T18:16:36.629Z,100417.72
2022-12-29T18:19:02.222Z,100417.72
2022-12-29T18:21:27.767Z,100427.09
2022-12-29T18:23:53.321Z,100427.94
2022-12-29T18:26:27.607Z,100432.63
2022-12-29T18:28:57.322Z,100438.94
2022-12-29T18:31:30.748Z,100438.13
2022-12-29T18:33:56.812Z,100445.28
2022-12-29T18:36:22.356Z,100437.84
2022-12-29T18:38:48.200Z,100436.19
2022-12-29T18:41:15.019Z,100440.88
2022-12-29T18:43:40.582Z,100439.78
2022-12-29T18:46:06.204Z,100436.19
2022-12-29T18:48:31.767Z,100435.38
2022-12-29T18:50:59.063Z,100430.69
2022-12-29T18:53:24.636Z,100440.88
2022-12-29T18:55:50.507Z,100447.22
2022-12-29T18:58:16.114Z,100447.22
2022-12-29T19:00:41.973Z,100443.66
2022-12-29T19:03:09.075Z,100452.72
2022-12-29T19:05:35.512Z,100456.31
2022-12-29T19:08:01.306Z,100462.13
2022-12-29T19:10:26.855Z,100455.50
2022-12-29T19:12:52.458Z,100457.44
2022-12-29T19:15:22.755Z,100462.13
2022-12-29T19:18:08.316Z,100466.53
2022-12-29T19:20:34.998Z,100479.47
2022-12-29T19:23:02.722Z,100472.03
2022-12-29T19:25:28.396Z,100476.72
2022-12-29T19:27:53.947Z,100475.91
2022-12-29T19:30:19.848Z,100473.97
2022-12-29T19:32:46.916Z,100485.81
2022-12-29T19:35:12.472Z,100483.06
2022-12-29T19:37:39.594Z,100489.69
2022-12-29T19:40:06.736Z,100490.50
2022-12-29T19:42:32.339Z,100487.75
2022-12-29T19:44:57.907Z,100496.03
2022-12-29T19:47:28.413Z,100489.69
2022-12-29T19:49:57.367Z,100494.09
2022-12-29T19:52:23.385Z,100502.34
2022-12-29T19:54:48.938Z,100493.25
2022-12-29T19:57:14.486Z,100500.72
2022-12-29T19:59:40.077Z,100501.53
2022-12-29T20:02:05.905Z,100510.63
2022-12-29T20:04:31.518Z,100507.03
2022-12-29T20:06:57.079Z,100513.38
2022-12-29T20:09:22.638Z,100513.38
2022-12-29T20:11:48.206Z,100520.84
2022-12-29T20:14:13.758Z,100523.59
2022-12-29T20:17:02.424Z,100520.00
2022-12-29T20:19:24.839Z,100527.16
2022-12-29T20:21:50.402Z,100529.91
2022-12-29T20:24:15.963Z,100541.75
2022-12-29T20:26:41.521Z,100543.72
2022-12-29T20:29:07.553Z,100546.47
2022-12-29T20:31:35.727Z,100543.72
2022-12-29T20:34:01.826Z,100543.72
2022-12-29T20:36:29.290Z,100553.91
2022-12-29T20:38:55.511Z,100540.13
2022-12-29T20:41:21.963Z,100539.31
2022-12-29T20:43:47.661Z,100534.63
2022-12-29T20:46:19.529Z,100540.94
2022-12-29T20:48:46.914Z,100540.94
2022-12-29T20:51:12.487Z,100551.16
2022-12-29T20:53:38.360Z,100550.34
2022-12-29T20:56:06.000Z,100547.28
2022-12-29T20:58:31.633Z,100549.22
2022-12-29T21:00:59.871Z,100549.22
2022-12-29T21:03:25.548Z,100551.97
2022-12-29T21:05:51.578Z,100551.16
2022-12-29T21:08:17.138Z,100548.41
2022-12-29T21:10:44.550Z,100551.16
2022-12-29T21:13:10.116Z,100560.25
2022-12-29T21:15:35.668Z,100560.25
2022-12-29T21:18:01.236Z,100558.59
2022-12-29T21:20:30.879Z,100554.72
2022-12-29T21:22:59.182Z,100555.84
2022-12-29T21:25:24.764Z,100562.19
2022-12-29T21:27:50.328Z,100561.34
2022-12-29T21:30:15.883Z,100559.44
2022-12-29T21:32:41.527Z,100567.69
2022-12-29T21:35:07.716Z,100570.44
2022-12-29T21:37:33.468Z,100563.81
2022-12-29T21:39:59.021Z,100573.22
2022-12-29T21:42:26.641Z,100566.56
2022-12-29T21:45:18.319Z,100574.03
2022-12-29T21:48:05.811Z,100567.69
2022-12-29T21:50:31.365Z,100567.69
2022-12-29T21:52:56.923Z,100565.75
2022-12-29T21:55:22.477Z,100575.66
2022-12-29T21:58:07.935Z,100571.28
2022-12-29T22:00:53.494Z,100575.97
2022-12-29T22:03:38.975Z,100575.97
2022-12-29T22:06:28.902Z,100581.47
2022-12-29T22:09:14.374Z,100578.72
2022-12-29T22:11:59.831Z,100580.34
2022-12-29T22:14:25.403Z,100579.81
2022-12-29T22:16:50.962Z,100587.00
2022-12-29T22:19:16.562Z,100582.31
2022-12-29T22:21:42.132Z,100598.84
2022-12-29T22:24:07.982Z,100593.31
2022-12-29T22:26:33.536Z,100592.50
2022-12-29T22:28:59.229Z,100598.03
2022-12-29T22:31:27.323Z,100598.84
2022-12-29T22:33:54.151Z,100602.41
2022-12-29T22:36:19.693Z,100605.19
2022-12-29T22:38:45.257Z,100606.28
2022-12-29T22:41:10.823Z,100603.53
2022-12-29T22:43:36.390Z,100611.81
2022-12-29T22:46:03.188Z,100604.34
2022-12-29T22:48:30.581Z,100611.81
2022-12-29T22:50:56.129Z,100617.31
2022-12-29T22:53:21.724Z,100622.00
2022-12-29T22:55:47.280Z,100617.31
2022-12-29T22:58:12.837Z,100627.22
2022-12-29T23:00:38.387Z,100631.09
2022-12-29T23:03:04.339Z,100635.50
2022-12-29T23:05:30.061Z,100635.78
2022-12-29T23:07:55.614Z,100635.78
2022-12-29T23:10:21.157Z,100639.38
2022-12-29T23:12:46.750Z,100647.63
2022-12-29T23:15:12.725Z,100660.59
2022-12-29T23:17:38.284Z,100664.19
2022-12-29T23:20:05.030Z,100676.03
2022-12-29T23:22:30.598Z,100675.22
2022-12-29T23:24:56.249Z,100672.44
2022-12-29T23:27:21.831Z,100675.22
2022-12-29T23:29:47.464Z,100672.44
2022-12-29T23:32:13.014Z,100680.72
2022-12-29T23:34:38.579Z,100680.72
2022-12-29T23:37:04.221Z,100684.28
2022-12-29T23:39:29.897Z,100696.16
2022-12-29T23:41:55.451Z,100700.84
2022-12-29T23:44:21.018Z,100701.94
2022-12-29T23:46:46.625Z,100715.44
2022-12-29T23:49:12.221Z,100722.91
2022-12-29T23:51:37.930Z,100719.31
2022-12-29T23:54:03.525Z,100727.59
2022-12-29T23:56:29.077Z,100733.09
2022-12-29T23:58:54.635Z,100741.38
